Time;durP1;ratioP1;P1;durP2;ratioP2;P2;SDS_P1;SDS_P2;PMS_P1;PMS_P2;Temp;Humidity;BMP_temperature;BMP_pressure;BME280_temperature;BME280_humidity;BME280_pressure;Samples;Min_cycle;Max_cycle;Signal;HPM_P1;HPM_P2
2024/03/10 00:00:42;;;;;;;19.58;10.90;;;;;;;;;;5071477;28;20094;-86
2024/03/10 00:03:09;;;;;;;17.38;12.13;;;;;;;;;;5055579;28;20519;-85
2024/03/10 00:05:40;;;;;;;18.73;11.68;;;;;;;;;;5071121;28;20095;-86
2024/03/10 00:08:07;;;;;;;19.02;11.65;;;;;;;;;;5071099;28;20103;-86
2024/03/10 00:10:37;;;;;;;16.52;11.23;;;;;;;;;;5071130;28;20049;-85
2024/03/10 00:13:05;;;;;;;18.35;11.43;;;;;;;;;;5071165;28;20048;-86
2024/03/10 00:15:32;;;;;;;21.95;13.55;;;;;;;;;;5055591;28;20045;-86
2024/03/10 00:18:00;;;;;;;21.38;12.48;;;;;;;;;;5046446;28;20064;-85
2024/03/10 00:20:27;;;;;;;22.63;12.43;;;;;;;;;;5071006;28;20055;-86
2024/03/10 00:22:55;;;;;;;19.63;12.50;;;;;;;;;;5055275;28;20061;-86
2024/03/10 00:25:22;;;;;;;20.77;12.90;;;;;;;;;;5070778;28;20508;-85
2024/03/10 00:27:50;;;;;;;20.23;13.15;;;;;;;;;;5055616;28;20508;-86
2024/03/10 00:30:17;;;;;;;22.95;12.75;;;;;;;;;;5070786;28;20489;-85
2024/03/10 00:32:45;;;;;;;24.98;14.52;;;;;;;;;;5070601;28;20103;-85
2024/03/10 00:35:12;;;;;;;24.48;13.95;;;;;;;;;;5054400;28;20132;-85
2024/03/10 00:37:40;;;;;;;23.40;14.02;;;;;;;;;;5070603;28;20444;-85
2024/03/10 00:40:07;;;;;;;24.05;13.15;;;;;;;;;;5069959;28;20045;-86
2024/03/10 00:42:36;;;;;;;21.88;12.95;;;;;;;;;;5070265;28;20049;-85
2024/03/10 00:45:04;;;;;;;18.02;12.75;;;;;;;;;;5069960;28;20052;-85
2024/03/10 00:47:32;;;;;;;20.67;12.85;;;;;;;;;;5055117;28;20048;-85
2024/03/10 00:50:00;;;;;;;20.52;12.18;;;;;;;;;;5045612;28;20049;-85
2024/03/10 00:52:28;;;;;;;19.52;12.20;;;;;;;;;;5054908;28;20111;-85
2024/03/10 00:54:55;;;;;;;24.00;12.93;;;;;;;;;;5054926;28;20061;-85
2024/03/10 00:57:22;;;;;;;23.50;13.88;;;;;;;;;;5063596;28;20042;-85
2024/03/10 00:59:51;;;;;;;22.00;13.60;;;;;;;;;;5053334;28;20087;-85
2024/03/10 01:02:19;;;;;;;21.67;13.05;;;;;;;;;;5069679;28;20489;-85
2024/03/10 01:04:47;;;;;;;23.00;13.55;;;;;;;;;;5054243;28;20091;-84
2024/03/10 01:07:14;;;;;;;19.88;12.27;;;;;;;;;;5069418;28;20481;-85
2024/03/10 01:09:42;;;;;;;26.85;13.88;;;;;;;;;;5053059;28;20103;-84
2024/03/10 01:12:10;;;;;;;23.10;13.25;;;;;;;;;;5053122;28;20115;-84
2024/03/10 01:14:38;;;;;;;22.10;13.88;;;;;;;;;;5069481;28;20048;-84
2024/03/10 01:17:08;;;;;;;24.83;13.80;;;;;;;;;;5054092;28;20535;-84
2024/03/10 01:19:36;;;;;;;23.58;14.00;;;;;;;;;;5069202;28;20076;-84
2024/03/10 01:22:04;;;;;;;23.52;13.15;;;;;;;;;;5053103;28;20413;-84
2024/03/10 01:24:31;;;;;;;25.38;15.90;;;;;;;;;;5053626;28;20056;-83
2024/03/10 01:26:58;;;;;;;25.33;14.85;;;;;;;;;;5069263;28;20041;-84
2024/03/10 01:29:26;;;;;;;25.20;15.77;;;;;;;;;;5052437;28;20049;-84
2024/03/10 01:31:55;;;;;;;22.95;15.15;;;;;;;;;;5052466;28;20087;-84
2024/03/10 01:34:23;;;;;;;25.35;14.27;;;;;;;;;;5052545;28;20504;-84
2024/03/10 01:36:50;;;;;;;21.83;14.70;;;;;;;;;;5053718;28;20052;-84
2024/03/10 01:39:17;;;;;;;26.33;15.40;;;;;;;;;;5044165;28;20084;-84
2024/03/10 01:41:45;;;;;;;26.10;15.50;;;;;;;;;;5052402;28;20091;-84
2024/03/10 01:44:12;;;;;;;24.70;15.07;;;;;;;;;;5052304;28;20056;-84
2024/03/10 01:46:39;;;;;;;29.05;15.80;;;;;;;;;;5053172;28;20056;-84
2024/03/10 01:49:08;;;;;;;24.02;14.70;;;;;;;;;;5052401;28;20413;-84
2024/03/10 01:51:36;;;;;;;25.35;15.20;;;;;;;;;;5053315;28;20045;-84
2024/03/10 01:54:04;;;;;;;24.70;14.88;;;;;;;;;;5052132;28;20099;-84
2024/03/10 01:56:31;;;;;;;28.25;15.45;;;;;;;;;;5051372;28;20053;-85
2024/03/10 01:58:58;;;;;;;26.70;15.25;;;;;;;;;;5043797;28;20049;-84
2024/03/10 02:01:28;;;;;;;23.15;14.15;;;;;;;;;;5052144;28;20052;-84
2024/03/10 02:03:55;;;;;;;27.13;16.15;;;;;;;;;;5068578;28;20433;-85
2024/03/10 02:06:22;;;;;;;27.10;15.50;;;;;;;;;;5052780;28;20391;-84
2024/03/10 02:08:51;;;;;;;30.20;15.18;;;;;;;;;;5053027;28;20103;-84
2024/03/10 02:11:23;;;;;;;28.00;16.95;;;;;;;;;;5068421;28;20076;-84
2024/03/10 02:13:50;;;;;;;28.05;16.50;;;;;;;;;;5051823;28;20045;-84
2024/03/10 02:16:17;;;;;;;34.00;17.20;;;;;;;;;;5046087;28;20132;-84
2024/03/10 02:18:45;;;;;;;31.17;17.90;;;;;;;;;;5051609;28;20045;-84
2024/03/10 02:21:14;;;;;;;29.40;17.15;;;;;;;;;;5053164;28;20114;-84
2024/03/10 02:23:47;;;;;;;30.35;17.45;;;;;;;;;;5052546;28;20586;-84
2024/03/10 02:26:15;;;;;;;26.98;16.70;;;;;;;;;;5053076;28;20056;-84
2024/03/10 02:29:14;;;;;;;28.70;16.35;;;;;;;;;;5052961;28;20056;-84
2024/03/10 02:48:20;;;;;;;30.92;17.33;;;;;;;;;;5052679;28;20091;-85
2024/03/10 02:50:51;;;;;;;30.00;17.17;;;;;;;;;;5052671;28;20102;-84
2024/03/10 02:53:18;;;;;;;31.80;16.77;;;;;;;;;;5068033;28;20056;-84
2024/03/10 02:55:45;;;;;;;33.17;17.88;;;;;;;;;;5052574;28;20057;-84
2024/03/10 02:58:13;;;;;;;27.80;16.30;;;;;;;;;;5051350;28;20099;-85
2024/03/10 03:00:40;;;;;;;30.42;17.10;;;;;;;;;;5051561;28;20110;-84
2024/03/10 03:03:08;;;;;;;31.60;17.80;;;;;;;;;;5043179;28;20421;-84
2024/03/10 03:05:39;;;;;;;29.95;17.27;;;;;;;;;;5051185;28;20092;-84
2024/03/10 03:08:07;;;;;;;30.60;17.33;;;;;;;;;;5056121;28;20139;-85
2024/03/10 03:10:35;;;;;;;33.22;17.90;;;;;;;;;;5071768;28;20084;-84
2024/03/10 03:13:03;;;;;;;31.30;17.50;;;;;;;;;;5071764;28;20060;-84
2024/03/10 03:15:30;;;;;;;34.42;19.27;;;;;;;;;;5055280;28;20055;-84
2024/03/10 03:17:57;;;;;;;36.47;18.73;;;;;;;;;;5071938;28;20049;-85
2024/03/10 03:20:26;;;;;;;36.38;19.42;;;;;;;;;;5071571;28;20049;-84
2024/03/10 03:22:54;;;;;;;36.75;19.60;;;;;;;;;;5055185;28;20448;-85
2024/03/10 03:25:22;;;;;;;32.67;18.48;;;;;;;;;;5056079;28;20044;-85
2024/03/10 03:27:50;;;;;;;33.33;18.70;;;;;;;;;;5071751;28;20051;-85
2024/03/10 03:30:18;;;;;;;33.08;18.25;;;;;;;;;;5056042;28;20417;-84
2024/03/10 03:32:46;;;;;;;32.97;18.88;;;;;;;;;;5054989;28;20045;-85
2024/03/10 03:35:16;;;;;;;34.00;17.92;;;;;;;;;;5056142;28;20509;-84
2024/03/10 03:37:45;;;;;;;30.15;18.45;;;;;;;;;;5071553;28;20456;-84
2024/03/10 03:40:14;;;;;;;38.00;19.88;;;;;;;;;;5071282;28;20131;-85
2024/03/10 03:42:41;;;;;;;35.45;18.50;;;;;;;;;;5054781;28;20049;-84
2024/03/10 03:45:09;;;;;;;30.10;17.75;;;;;;;;;;5054729;28;20053;-84
2024/03/10 03:47:37;;;;;;;29.02;17.20;;;;;;;;;;5055799;28;20049;-84
2024/03/10 03:50:05;;;;;;;35.05;19.55;;;;;;;;;;5056081;28;20049;-85
2024/03/10 03:52:32;;;;;;;34.10;19.50;;;;;;;;;;5055473;28;20409;-84
2024/03/10 03:55:01;;;;;;;33.17;18.85;;;;;;;;;;5046310;28;20045;-84
2024/03/10 03:57:28;;;;;;;35.47;19.05;;;;;;;;;;5070838;28;20053;-84
2024/03/10 03:59:56;;;;;;;33.72;18.92;;;;;;;;;;5070756;28;20412;-84
2024/03/10 04:02:25;;;;;;;37.85;20.95;;;;;;;;;;5055505;28;20063;-84
2024/03/10 04:04:54;;;;;;;37.35;19.38;;;;;;;;;;5054381;28;20045;-84
2024/03/10 04:07:22;;;;;;;39.90;21.52;;;;;;;;;;5053929;28;20449;-84
2024/03/10 04:09:49;;;;;;;35.63;19.70;;;;;;;;;;5053937;28;20513;-84
2024/03/10 04:12:17;;;;;;;34.17;19.13;;;;;;;;;;5054062;28;20053;-84
2024/03/10 04:14:44;;;;;;;37.55;20.77;;;;;;;;;;5054226;28;20053;-84
2024/03/10 04:17:11;;;;;;;37.45;19.77;;;;;;;;;;5070985;28;20099;-84
2024/03/10 04:19:39;;;;;;;34.95;18.70;;;;;;;;;;5069483;28;20053;-84
2024/03/10 04:22:09;;;;;;;40.33;21.75;;;;;;;;;;5070600;28;20500;-84
2024/03/10 04:24:41;;;;;;;45.13;22.42;;;;;;;;;;5053796;28;20053;-85
2024/03/10 04:27:09;;;;;;;37.63;20.45;;;;;;;;;;5054982;28;20527;-84
2024/03/10 04:29:36;;;;;;;46.42;21.52;;;;;;;;;;5070408;28;20079;-84
2024/03/10 04:32:07;;;;;;;40.25;21.38;;;;;;;;;;5070318;28;20080;-85
2024/03/10 04:34:36;;;;;;;41.28;22.55;;;;;;;;;;5070307;28;20064;-84
2024/03/10 04:37:08;;;;;;;42.20;21.85;;;;;;;;;;5052270;28;20074;-84
2024/03/10 04:39:36;;;;;;;39.13;20.73;;;;;;;;;;5054380;28;20056;-84
2024/03/10 04:42:04;;;;;;;43.13;23.08;;;;;;;;;;5053751;28;20303;-85
2024/03/10 04:44:31;;;;;;;48.58;25.60;;;;;;;;;;5053785;28;20386;-84
2024/03/10 04:46:59;;;;;;;53.80;25.08;;;;;;;;;;5053723;28;20323;-84
2024/03/10 04:49:27;;;;;;;40.97;23.00;;;;;;;;;;5053508;28;20486;-84
2024/03/10 04:51:54;;;;;;;43.53;22.15;;;;;;;;;;5054352;28;20131;-85
2024/03/10 04:54:22;;;;;;;44.78;22.13;;;;;;;;;;5053596;28;20053;-84
2024/03/10 04:56:49;;;;;;;43.53;22.88;;;;;;;;;;5054630;28;20048;-85
2024/03/10 04:59:17;;;;;;;46.47;23.42;;;;;;;;;;5069768;28;20052;-85
2024/03/10 05:01:45;;;;;;;42.50;23.58;;;;;;;;;;5053745;28;20458;-85
2024/03/10 05:04:16;;;;;;;42.45;22.70;;;;;;;;;;5054528;28;20095;-84
2024/03/10 05:06:43;;;;;;;42.30;22.33;;;;;;;;;;5054369;28;20559;-85
2024/03/10 05:09:10;;;;;;;44.17;23.33;;;;;;;;;;5069871;28;20076;-85
2024/03/10 05:11:37;;;;;;;39.00;22.73;;;;;;;;;;5053114;28;20409;-84
2024/03/10 05:14:05;;;;;;;43.55;22.20;;;;;;;;;;5069887;28;20128;-84
2024/03/10 05:16:32;;;;;;;41.25;23.00;;;;;;;;;;5069783;28;20413;-85
2024/03/10 05:18:59;;;;;;;47.15;24.25;;;;;;;;;;5069359;28;20053;-85
2024/03/10 05:21:27;;;;;;;47.95;24.70;;;;;;;;;;5070016;28;20048;-84
2024/03/10 05:23:54;;;;;;;44.17;22.75;;;;;;;;;;5069599;28;20044;-85
2024/03/10 05:26:21;;;;;;;43.83;23.08;;;;;;;;;;5069376;28;20103;-85
2024/03/10 05:28:48;;;;;;;44.40;23.55;;;;;;;;;;5069693;28;20489;-85
2024/03/10 05:31:27;;;;;;;50.90;24.52;;;;;;;;;;5068643;28;20111;-85
2024/03/10 05:33:59;;;;;;;44.92;22.77;;;;;;;;;;5069701;28;20057;-85
2024/03/10 05:36:27;;;;;;;48.17;24.42;;;;;;;;;;5069671;28;20041;-85
2024/03/10 05:38:54;;;;;;;50.83;24.60;;;;;;;;;;5069496;28;20420;-85
2024/03/10 05:41:21;;;;;;;45.72;25.38;;;;;;;;;;5069570;28;20469;-85
2024/03/10 05:43:49;;;;;;;48.78;25.35;;;;;;;;;;5069452;28;20059;-84
2024/03/10 05:46:17;;;;;;;49.42;25.10;;;;;;;;;;5053738;28;20481;-85
2024/03/10 05:48:47;;;;;;;46.80;24.77;;;;;;;;;;5069293;28;20048;-86
2024/03/10 05:51:15;;;;;;;52.92;26.67;;;;;;;;;;5052989;28;20489;-85
2024/03/10 05:53:42;;;;;;;54.72;29.20;;;;;;;;;;5069429;28;20049;-85
2024/03/10 05:56:12;;;;;;;47.95;27.27;;;;;;;;;;5069591;28;20497;-86
2024/03/10 05:58:40;;;;;;;56.42;28.23;;;;;;;;;;5069271;28;20128;-86
2024/03/10 06:01:07;;;;;;;55.17;26.70;;;;;;;;;;5053062;28;20460;-86
2024/03/10 06:03:35;;;;;;;47.20;25.27;;;;;;;;;;5069016;28;20077;-86
2024/03/10 06:06:03;;;;;;;47.67;24.63;;;;;;;;;;5052601;28;20130;-85
2024/03/10 06:08:30;;;;;;;46.42;25.83;;;;;;;;;;5069106;28;20478;-85
2024/03/10 06:10:58;;;;;;;51.88;26.88;;;;;;;;;;5069030;28;20136;-86
2024/03/10 06:13:25;;;;;;;48.00;25.48;;;;;;;;;;5068926;28;20044;-86
2024/03/10 06:15:53;;;;;;;48.90;26.38;;;;;;;;;;5052639;28;20049;-86
2024/03/10 06:18:24;;;;;;;51.25;26.88;;;;;;;;;;5068835;28;20472;-86
2024/03/10 06:26:23;;;;;;;57.60;28.17;;;;;;;;;;5053315;28;20099;-86
2024/03/10 06:28:51;;;;;;;57.45;28.65;;;;;;;;;;5068420;28;20059;-86
2024/03/10 06:31:19;;;;;;;57.92;28.85;;;;;;;;;;5068882;28;20049;-86
2024/03/10 06:33:50;;;;;;;62.25;28.48;;;;;;;;;;5068532;28;20040;-85
2024/03/10 06:36:17;;;;;;;58.28;29.83;;;;;;;;;;5053075;28;20099;-85
2024/03/10 06:38:45;;;;;;;57.55;30.02;;;;;;;;;;5053067;28;20067;-86
2024/03/10 06:41:12;;;;;;;54.95;28.77;;;;;;;;;;5052497;28;20041;-86
2024/03/10 06:43:40;;;;;;;63.80;31.35;;;;;;;;;;5051859;28;20489;-86
2024/03/10 06:46:10;;;;;;;55.42;28.50;;;;;;;;;;5068959;28;20083;-85
2024/03/10 06:48:37;;;;;;;54.90;29.48;;;;;;;;;;5052966;28;20049;-86
2024/03/10 06:51:06;;;;;;;55.60;30.33;;;;;;;;;;5053016;28;20485;-86
2024/03/10 06:53:33;;;;;;;53.85;29.17;;;;;;;;;;5052972;28;20088;-86
2024/03/10 06:56:01;;;;;;;52.22;28.10;;;;;;;;;;5044793;28;20524;-86
2024/03/10 06:58:30;;;;;;;54.30;30.13;;;;;;;;;;5068346;28;20463;-86
2024/03/10 07:01:01;;;;;;;59.50;30.80;;;;;;;;;;5068590;28;20056;-86
2024/03/10 07:03:29;;;;;;;56.90;31.30;;;;;;;;;;5068512;28;20552;-85
2024/03/10 07:06:00;;;;;;;58.30;31.20;;;;;;;;;;5068299;28;20060;-86
2024/03/10 07:08:27;;;;;;;53.17;30.48;;;;;;;;;;5068239;28;20056;-86
2024/03/10 07:10:55;;;;;;;50.47;28.30;;;;;;;;;;5068621;28;20132;-86
2024/03/10 07:13:22;;;;;;;58.83;31.25;;;;;;;;;;5050987;28;20478;-86
2024/03/10 07:15:50;;;;;;;52.30;29.50;;;;;;;;;;5051173;28;20052;-86
2024/03/10 07:18:17;;;;;;;51.17;29.17;;;;;;;;;;5052181;28;20057;-86
2024/03/10 07:20:44;;;;;;;54.95;29.38;;;;;;;;;;5067115;28;20360;-86
2024/03/10 07:23:13;;;;;;;57.40;29.65;;;;;;;;;;5043577;28;20055;-86
2024/03/10 07:25:41;;;;;;;56.88;30.77;;;;;;;;;;5051926;28;20481;-86
2024/03/10 07:28:08;;;;;;;58.85;32.28;;;;;;;;;;5052725;28;20049;-86
2024/03/10 07:30:35;;;;;;;55.03;31.88;;;;;;;;;;5068305;28;20084;-86
2024/03/10 07:33:02;;;;;;;53.97;32.58;;;;;;;;;;5068384;28;20110;-86
2024/03/10 07:35:30;;;;;;;49.58;31.08;;;;;;;;;;5068066;28;20056;-85
2024/03/10 07:37:57;;;;;;;49.55;28.83;;;;;;;;;;5068494;28;20220;-86
2024/03/10 07:40:25;;;;;;;45.55;27.80;;;;;;;;;;5067396;28;20099;-86
2024/03/10 07:42:53;;;;;;;43.72;28.27;;;;;;;;;;5068397;28;20132;-86
2024/03/10 07:45:20;;;;;;;44.75;28.58;;;;;;;;;;5052558;28;20053;-86
2024/03/10 07:47:49;;;;;;;46.33;28.70;;;;;;;;;;5052748;28;20044;-86
2024/03/10 07:50:17;;;;;;;52.92;28.77;;;;;;;;;;5051404;28;20094;-86
2024/03/10 07:52:46;;;;;;;43.95;26.15;;;;;;;;;;5068134;28;20053;-86
2024/03/10 07:55:13;;;;;;;43.97;26.42;;;;;;;;;;5071429;28;20421;-86
2024/03/10 07:57:41;;;;;;;43.03;26.67;;;;;;;;;;5055194;28;20041;-86
2024/03/10 08:00:16;;;;;;;44.72;26.48;;;;;;;;;;5071563;28;20084;-86
2024/03/10 08:02:44;;;;;;;41.10;25.60;;;;;;;;;;5071472;28;20406;-86
2024/03/10 08:05:12;;;;;;;41.95;25.92;;;;;;;;;;5071664;28;20098;-85
2024/03/10 08:07:43;;;;;;;49.08;27.30;;;;;;;;;;5071108;28;20493;-86
2024/03/10 08:10:15;;;;;;;45.75;27.67;;;;;;;;;;5070691;28;20468;-85
2024/03/10 08:12:46;;;;;;;42.47;26.75;;;;;;;;;;5055734;28;20057;-86
2024/03/10 08:15:14;;;;;;;87.43;47.28;;;;;;;;;;5055861;28;20107;-85
2024/03/10 08:17:41;;;;;;;41.13;26.15;;;;;;;;;;5071541;28;20482;-86
2024/03/10 08:20:13;;;;;;;59.67;34.75;;;;;;;;;;5054548;28;20084;-85
2024/03/10 08:22:42;;;;;;;40.23;25.57;;;;;;;;;;5054710;28;20508;-86
2024/03/10 08:25:10;;;;;;;38.00;24.60;;;;;;;;;;5054439;28;20353;-86
2024/03/10 08:27:38;;;;;;;39.97;26.27;;;;;;;;;;5055610;28;20049;-85
2024/03/10 08:30:09;;;;;;;39.15;26.23;;;;;;;;;;5071087;28;20045;-86
2024/03/10 08:32:37;;;;;;;39.40;24.20;;;;;;;;;;5055581;28;20123;-85
2024/03/10 08:35:08;;;;;;;34.70;23.65;;;;;;;;;;5070953;28;20063;-86
2024/03/10 08:37:42;;;;;;;35.33;23.33;;;;;;;;;;5055644;28;20084;-86
2024/03/10 08:40:12;;;;;;;34.67;23.90;;;;;;;;;;5070711;28;20409;-86
2024/03/10 08:42:43;;;;;;;36.22;23.58;;;;;;;;;;5070900;28;20063;-85
2024/03/10 08:45:11;;;;;;;31.23;22.13;;;;;;;;;;5054779;28;20045;-84
2024/03/10 08:47:39;;;;;;;28.85;20.88;;;;;;;;;;5054201;28;20060;-86
2024/03/10 08:50:08;;;;;;;32.70;23.00;;;;;;;;;;5070400;28;20075;-85
2024/03/10 08:52:36;;;;;;;30.88;20.88;;;;;;;;;;5062027;28;20119;-85
2024/03/10 08:55:05;;;;;;;28.05;19.25;;;;;;;;;;5070756;28;20048;-85
2024/03/10 08:57:35;;;;;;;22.58;16.25;;;;;;;;;;5054978;28;20057;-85
2024/03/10 09:00:04;;;;;;;20.27;15.77;;;;;;;;;;5062266;28;20531;-84
2024/03/10 09:02:32;;;;;;;20.25;15.70;;;;;;;;;;5053841;28;20076;-85
2024/03/10 09:05:00;;;;;;;18.67;14.38;;;;;;;;;;5053179;28;20106;-85
2024/03/10 09:07:28;;;;;;;17.23;14.38;;;;;;;;;;5053256;28;20083;-85
2024/03/10 09:09:57;;;;;;;19.45;16.17;;;;;;;;;;5053593;28;20493;-85
2024/03/10 09:12:29;;;;;;;18.67;14.98;;;;;;;;;;5053678;28;20052;-85
2024/03/10 09:14:57;;;;;;;16.42;13.93;;;;;;;;;;5051832;28;20041;-84
2024/03/10 09:17:25;;;;;;;17.63;15.10;;;;;;;;;;5049722;28;20045;-85
2024/03/10 09:19:56;;;;;;;17.35;14.85;;;;;;;;;;5050984;28;20421;-85
2024/03/10 09:22:26;;;;;;;17.30;14.48;;;;;;;;;;5053520;28;20103;-85
2024/03/10 09:24:56;;;;;;;17.02;14.30;;;;;;;;;;5053259;28;20053;-85
2024/03/10 09:27:26;;;;;;;20.02;15.43;;;;;;;;;;5069994;28;20115;-85
2024/03/10 09:29:55;;;;;;;16.95;14.20;;;;;;;;;;5069947;28;20045;-85
2024/03/10 09:32:26;;;;;;;20.58;15.98;;;;;;;;;;5053053;28;20045;-85
2024/03/10 09:34:55;;;;;;;17.77;14.93;;;;;;;;;;5069840;28;20413;-85
2024/03/10 09:37:22;;;;;;;18.48;15.10;;;;;;;;;;5054057;28;20052;-86
2024/03/10 09:39:53;;;;;;;18.70;14.63;;;;;;;;;;5069131;28;20132;-85
2024/03/10 09:42:22;;;;;;;16.55;13.85;;;;;;;;;;5052876;28;20057;-85
2024/03/10 09:44:49;;;;;;;16.92;14.63;;;;;;;;;;5054188;28;20049;-86
2024/03/10 09:47:19;;;;;;;22.48;15.38;;;;;;;;;;5069765;28;20115;-85
2024/03/10 09:49:47;;;;;;;17.05;15.25;;;;;;;;;;5053790;28;20053;-86
2024/03/10 09:52:15;;;;;;;15.02;13.43;;;;;;;;;;5052748;28;20053;-86
2024/03/10 09:54:46;;;;;;;17.83;15.38;;;;;;;;;;5069468;28;20057;-86
2024/03/10 09:57:13;;;;;;;16.80;14.10;;;;;;;;;;5069570;28;20053;-85
2024/03/10 09:59:44;;;;;;;15.32;13.23;;;;;;;;;;5069327;28;20401;-86
2024/03/10 10:02:17;;;;;;;14.43;12.90;;;;;;;;;;5053412;28;20052;-86
2024/03/10 10:04:51;;;;;;;15.38;13.55;;;;;;;;;;5069436;28;20049;-85
2024/03/10 10:07:23;;;;;;;15.00;13.00;;;;;;;;;;5053361;28;20057;-86
2024/03/10 10:09:58;;;;;;;15.55;13.48;;;;;;;;;;5052556;28;20465;-85
2024/03/10 10:12:30;;;;;;;16.45;13.93;;;;;;;;;;5068688;28;20489;-85
2024/03/10 10:14:57;;;;;;;14.60;12.90;;;;;;;;;;5069014;28;20072;-86
2024/03/10 10:17:29;;;;;;;14.38;12.88;;;;;;;;;;5051689;28;20095;-85
2024/03/10 10:19:56;;;;;;;12.10;10.77;;;;;;;;;;5052159;28;20555;-86
2024/03/10 10:22:24;;;;;;;13.82;12.35;;;;;;;;;;5053103;28;20053;-86
2024/03/10 10:25:04;;;;;;;13.98;11.82;;;;;;;;;;5053359;28;20057;-86
2024/03/10 10:27:35;;;;;;;;;;;;;;;;;;5053921;28;20065;-85
2024/03/10 10:30:09;;;;;;;11.52;10.32;;;;;;;;;;5068772;28;19921;-86
2024/03/10 10:32:37;;;;;;;13.68;11.13;;;;;;;;;;5068603;28;20057;-86
2024/03/10 10:35:07;;;;;;;11.57;10.38;;;;;;;;;;5053215;28;20115;-86
2024/03/10 10:37:34;;;;;;;15.38;12.50;;;;;;;;;;5068751;28;20440;-85
2024/03/10 10:40:11;;;;;;;12.50;10.70;;;;;;;;;;5044867;28;20084;-86
2024/03/10 10:42:38;;;;;;;10.98;9.98;;;;;;;;;;5068668;28;20071;-86
2024/03/10 10:45:19;;;;;;;11.23;9.73;;;;;;;;;;5067252;28;20084;-86
2024/03/10 10:47:47;;;;;;;10.23;9.13;;;;;;;;;;5051882;28;20048;-86
2024/03/10 10:50:20;;;;;;;10.90;9.15;;;;;;;;;;5052898;28;20056;-86
2024/03/10 10:52:48;;;;;;;9.82;8.80;;;;;;;;;;5068508;28;20409;-86
2024/03/10 10:55:16;;;;;;;9.68;8.77;;;;;;;;;;5068341;28;20076;-86
2024/03/10 10:57:47;;;;;;;17.33;13.98;;;;;;;;;;5052821;28;20049;-85
2024/03/10 11:00:22;;;;;;;10.35;9.25;;;;;;;;;;5068594;28;20056;-86
2024/03/10 11:03:04;;;;;;;10.02;9.10;;;;;;;;;;5068133;28;20091;-86
2024/03/10 11:05:32;;;;;;;10.02;9.02;;;;;;;;;;5051716;28;20096;-86
2024/03/10 11:07:59;;;;;;;9.40;8.50;;;;;;;;;;5052470;28;20417;-86
2024/03/10 11:10:39;;;;;;;9.60;8.68;;;;;;;;;;5051498;28;20045;-85
2024/03/10 11:13:11;;;;;;;9.48;8.60;;;;;;;;;;5045050;28;20053;-86
2024/03/10 11:15:39;;;;;;;8.98;7.22;;;;;;;;;;5052675;28;20103;-86
2024/03/10 11:18:19;;;;;;;8.00;7.30;;;;;;;;;;5051736;28;20597;-86
2024/03/10 11:20:48;;;;;;;8.70;7.90;;;;;;;;;;5051451;28;20052;-86
2024/03/10 11:23:22;;;;;;;9.32;8.43;;;;;;;;;;5051420;28;20390;-86
2024/03/10 11:25:52;;;;;;;8.65;7.85;;;;;;;;;;5068013;28;20049;-86
2024/03/10 11:28:21;;;;;;;9.00;8.10;;;;;;;;;;5054930;28;20056;-86
2024/03/10 11:30:49;;;;;;;8.50;7.70;;;;;;;;;;5056535;28;20470;-86
2024/03/10 11:33:21;;;;;;;10.05;8.38;;;;;;;;;;5071863;28;20048;-86
2024/03/10 11:35:50;;;;;;;9.13;8.23;;;;;;;;;;5071872;28;20049;-86
2024/03/10 11:38:20;;;;;;;9.80;7.97;;;;;;;;;;5056124;28;20079;-86
2024/03/10 11:40:56;;;;;;;9.65;8.75;;;;;;;;;;5056455;28;20048;-86
2024/03/10 11:43:23;;;;;;;37.35;21.40;;;;;;;;;;5071842;28;20056;-85
2024/03/10 11:45:51;;;;;;;13.93;10.27;;;;;;;;;;5071747;28;20132;-86
2024/03/10 11:48:18;;;;;;;13.27;9.85;;;;;;;;;;5055968;28;20053;-86
2024/03/10 11:50:45;;;;;;;11.50;10.20;;;;;;;;;;5055934;28;20056;-86
2024/03/10 11:53:14;;;;;;;9.95;8.95;;;;;;;;;;5071644;28;20056;-86
2024/03/10 11:55:42;;;;;;;8.73;7.90;;;;;;;;;;5056218;28;20049;-86
2024/03/10 11:58:11;;;;;;;7.90;7.13;;;;;;;;;;5056011;28;20128;-86
2024/03/10 12:00:39;;;;;;;8.05;7.32;;;;;;;;;;5056052;28;20382;-86
2024/03/10 12:03:08;;;;;;;8.07;7.28;;;;;;;;;;5071407;28;20423;-86
2024/03/10 12:05:35;;;;;;;7.68;6.90;;;;;;;;;;5055860;28;20456;-86
2024/03/10 12:08:05;;;;;;;7.95;7.15;;;;;;;;;;5071128;28;20127;-86
2024/03/10 12:10:32;;;;;;;6.45;5.90;;;;;;;;;;5055721;28;20057;-86
2024/03/10 12:13:00;;;;;;;7.43;6.50;;;;;;;;;;5055795;28;20081;-86
2024/03/10 12:15:29;;;;;;;7.32;6.45;;;;;;;;;;5055083;28;20052;-86
2024/03/10 12:18:00;;;;;;;7.47;6.78;;;;;;;;;;5071138;28;20489;-86
2024/03/10 12:20:29;;;;;;;8.70;7.85;;;;;;;;;;5055009;28;20092;-86
2024/03/10 12:22:58;;;;;;;8.90;7.55;;;;;;;;;;5054627;28;20102;-86
2024/03/10 12:25:27;;;;;;;8.00;7.20;;;;;;;;;;5071074;28;20049;-86
2024/03/10 12:27:54;;;;;;;8.43;7.63;;;;;;;;;;5070883;28;20516;-86
2024/03/10 12:30:21;;;;;;;10.77;8.18;;;;;;;;;;5070875;28;20053;-86
2024/03/10 12:32:52;;;;;;;10.23;9.23;;;;;;;;;;5055418;28;20045;-85
2024/03/10 12:35:21;;;;;;;12.73;11.45;;;;;;;;;;5054686;28;20135;-85
2024/03/10 12:37:50;;;;;;;13.52;12.10;;;;;;;;;;5054192;28;20505;-86
2024/03/10 12:40:18;;;;;;;15.25;13.02;;;;;;;;;;5054148;28;20052;-86
2024/03/10 12:42:50;;;;;;;16.13;13.82;;;;;;;;;;5055154;28;20041;-86
2024/03/10 12:45:18;;;;;;;15.52;13.85;;;;;;;;;;5055314;28;20052;-86
2024/03/10 12:47:46;;;;;;;15.70;13.77;;;;;;;;;;5055091;28;20395;-86
2024/03/10 12:50:14;;;;;;;15.50;13.13;;;;;;;;;;5054976;28;20128;-86
2024/03/10 12:52:42;;;;;;;19.40;16.85;;;;;;;;;;5055091;28;20049;-86
2024/03/10 12:55:09;;;;;;;17.55;15.65;;;;;;;;;;5070650;28;20043;-86
2024/03/10 12:57:39;;;;;;;17.15;14.00;;;;;;;;;;5070834;28;20053;-85
2024/03/10 13:00:22;;;;;;;15.93;14.20;;;;;;;;;;5055235;28;20052;-85
2024/03/10 13:02:56;;;;;;;18.73;14.88;;;;;;;;;;5055053;28;20060;-86
2024/03/10 13:05:24;;;;;;;16.40;14.43;;;;;;;;;;5054930;28;20044;-86
2024/03/10 13:07:51;;;;;;;17.45;14.10;;;;;;;;;;5070094;28;20092;-86
2024/03/10 13:10:20;;;;;;;17.38;14.88;;;;;;;;;;5070378;28;20414;-86
2024/03/10 13:12:47;;;;;;;15.88;14.18;;;;;;;;;;5070009;28;20053;-84
2024/03/10 13:15:15;;;;;;;23.80;19.45;;;;;;;;;;5054539;28;20053;-86
2024/03/10 13:17:43;;;;;;;16.75;14.95;;;;;;;;;;5054695;28;20049;-86
2024/03/10 13:20:16;;;;;;;14.75;13.00;;;;;;;;;;5053168;28;20406;-85
2024/03/10 13:22:44;;;;;;;;;;;;;;;;;;5053963;28;20059;-85
2024/03/10 13:25:11;;;;;;;16.63;13.68;;;;;;;;;;5054485;28;19920;-86
2024/03/10 13:27:39;;;;;;;16.27;13.90;;;;;;;;;;5054256;28;20049;-85
2024/03/10 13:30:08;;;;;;;17.60;13.68;;;;;;;;;;5069914;28;20056;-85
2024/03/10 13:32:36;;;;;;;17.20;14.90;;;;;;;;;;5069921;28;20429;-86
2024/03/10 13:35:03;;;;;;;17.13;14.15;;;;;;;;;;5045348;28;20049;-86
2024/03/10 13:37:33;;;;;;;17.67;14.98;;;;;;;;;;5069944;28;20049;-86
2024/03/10 13:40:04;;;;;;;15.18;13.55;;;;;;;;;;5069106;28;20094;-86
2024/03/10 13:42:32;;;;;;;18.27;14.75;;;;;;;;;;5053031;28;20049;-85
2024/03/10 13:45:00;;;;;;;17.17;14.02;;;;;;;;;;5053930;28;20408;-85
2024/03/10 13:47:28;;;;;;;15.48;13.63;;;;;;;;;;5052738;28;20141;-86
2024/03/10 13:49:56;;;;;;;16.15;14.23;;;;;;;;;;5069427;28;20060;-86
2024/03/10 13:52:23;;;;;;;16.17;13.35;;;;;;;;;;5051959;28;20479;-86
2024/03/10 13:54:50;;;;;;;15.15;13.60;;;;;;;;;;5069431;28;20130;-85
2024/03/10 13:57:22;;;;;;;16.92;14.23;;;;;;;;;;5053731;28;20049;-86
2024/03/10 13:59:51;;;;;;;18.73;14.50;;;;;;;;;;5069271;28;20452;-86
2024/03/10 14:02:18;;;;;;;15.73;13.40;;;;;;;;;;5053670;28;20106;-86
2024/03/10 14:04:45;;;;;;;16.25;13.90;;;;;;;;;;5069408;28;20123;-86
2024/03/10 14:07:14;;;;;;;15.90;13.38;;;;;;;;;;5053341;28;20063;-86
2024/03/10 14:09:45;;;;;;;16.92;13.68;;;;;;;;;;5052764;28;20091;-86
2024/03/10 14:12:13;;;;;;;17.98;13.10;;;;;;;;;;5069102;28;20067;-86
2024/03/10 14:14:41;;;;;;;14.48;12.98;;;;;;;;;;5053521;28;20051;-86
2024/03/10 14:17:08;;;;;;;15.88;13.52;;;;;;;;;;5069091;28;20049;-86
2024/03/10 14:19:38;;;;;;;15.02;13.43;;;;;;;;;;5068841;28;20052;-86
2024/03/10 14:22:06;;;;;;;15.55;13.48;;;;;;;;;;5052609;28;20075;-86
2024/03/10 14:24:34;;;;;;;15.13;12.90;;;;;;;;;;5068775;28;20103;-86
2024/03/10 14:27:01;;;;;;;15.80;13.80;;;;;;;;;;5068788;28;20114;-86
2024/03/10 14:29:29;;;;;;;15.32;13.20;;;;;;;;;;5052399;28;20122;-86
2024/03/10 14:31:56;;;;;;;15.15;13.30;;;;;;;;;;5066198;28;20136;-87
2024/03/10 14:34:24;;;;;;;14.85;13.13;;;;;;;;;;5052115;28;20057;-86
2024/03/10 14:36:52;;;;;;;23.23;18.17;;;;;;;;;;5053263;28;20052;-86
2024/03/10 14:39:20;;;;;;;20.40;17.23;;;;;;;;;;5068266;28;20416;-85
2024/03/10 14:41:47;;;;;;;15.98;13.23;;;;;;;;;;5068228;28;20090;-86
2024/03/10 14:44:16;;;;;;;15.70;12.45;;;;;;;;;;5053050;28;20055;-86
2024/03/10 14:46:43;;;;;;;14.95;12.50;;;;;;;;;;5068679;28;20084;-86
2024/03/10 14:49:12;;;;;;;14.35;12.63;;;;;;;;;;5068226;28;20551;-86
2024/03/10 14:51:39;;;;;;;15.15;12.60;;;;;;;;;;5068436;28;20555;-85